Ana Sayfa
METAR-TAF:

METAR-TAF

Havaalanları :

Pointe-Noire, Kongo

Enlem: 04-49S, Boylam: 011-54E, yükseklik: 17 m

Güncel hava durumu gözlemi

Rapor saat 19:00 UTC de 1 saat ve 8 dakika önce yapıldı.
Rüzgar güney/güneybatıdan 6 kt
Sıcaklık 22°C
Nem 94%
Basınç 1016 hPa
Görüş mesafesi: 8000 m
1000 ft yükseklikte az bulutlu
2000 ft yükseklikte parçalı çok bulutlu

METAR: FCPP 151900Z 21006KT 8000 FEW010 BKN020 22/21 Q1016 NOSIG

Saat: 21:08 (20:08 UTC)

Tahmin

Rapor saat 17:00 UTC de 3 saat ve 8 dakika önce yapıldı.
Ayın 15'si saat 18 UTC'den ayın 16'si saat 18 UTC'ye kadar geçerli Tahmin
Rüzgar güneydan 6 kt
Görüş mesafesi: 8000 m
1000 ft yükseklikte parçalı bulutlu

TAF: FCPP 151700Z 1518/1618 18006KT 8000 SCT010 BKN0203

4.000'den fazla havaalanı için hava durumu gözlemleri ve tahminleri (METAR ve TAF raporları).

Kullanılabilir istasyonlar harita üzerinde sarı ve kırmızı noktalarla gösterilir.

İstasyonun adını görmek için fareyi noktanın üzerinde gezdirin.

Sonrasında hava gözlem ve tahminlerini görmek için tıklayın.

Haritayı değiştirmek için: yaklaştırmak için siyah artı işaretli yeşil düğmeye ve uzaklaştırmak için de eksi işaretli düğmeye hızla tıklayın; bitişik haritalar için yeşil okları kullanın.


METAR-TAF: